createdAt,value
2022-08-29T00:02:11.743Z,25.44
2022-08-29T00:04:44.029Z,25.40
2022-08-29T00:07:16.857Z,25.37
2022-08-29T00:09:49.052Z,25.34
2022-08-29T00:12:21.292Z,25.33
2022-08-29T00:14:53.623Z,25.29
2022-08-29T00:17:25.944Z,25.25
2022-08-29T00:19:58.387Z,25.19
2022-08-29T00:22:31.338Z,25.14
2022-08-29T00:25:05.049Z,25.11
2022-08-29T00:27:37.576Z,25.12
2022-08-29T00:30:12.339Z,25.12
2022-08-29T00:32:44.687Z,25.11
2022-08-29T00:35:19.737Z,25.05
2022-08-29T00:37:52.324Z,25.03
2022-08-29T00:40:28.236Z,25.00
2022-08-29T00:43:00.524Z,25.00
2022-08-29T00:45:33.674Z,24.96
2022-08-29T00:48:11.439Z,24.95
2022-08-29T00:50:49.251Z,24.97
2022-08-29T00:53:31.511Z,24.99
2022-08-29T00:56:04.733Z,25.01
2022-08-29T00:58:42.239Z,25.02
2022-08-29T01:01:14.531Z,25.02
2022-08-29T01:03:47.542Z,25.01
2022-08-29T01:06:20.904Z,24.99
2022-08-29T01:08:57.280Z,24.98
2022-08-29T01:11:49.412Z,24.96
2022-08-29T01:14:23.568Z,24.93
2022-08-29T01:16:59.066Z,24.89
2022-08-29T01:19:54.353Z,24.86
2022-08-29T01:22:42.186Z,24.87
2022-08-29T01:25:19.626Z,24.86
2022-08-29T01:27:58.093Z,24.83
2022-08-29T01:30:30.490Z,24.80
2022-08-29T01:33:03.178Z,24.73
2022-08-29T01:35:36.711Z,24.67
2022-08-29T01:38:08.853Z,24.63
2022-08-29T01:40:41.094Z,24.59
2022-08-29T01:43:13.303Z,24.53
2022-08-29T01:45:45.843Z,24.51
2022-08-29T01:48:18.149Z,24.50
2022-08-29T01:50:50.375Z,24.49
2022-08-29T01:53:24.979Z,24.48
2022-08-29T01:55:57.122Z,24.48
2022-08-29T01:58:30.024Z,24.48
2022-08-29T02:01:02.220Z,24.48
2022-08-29T02:03:34.478Z,24.48
2022-08-29T02:06:09.736Z,24.45
2022-08-29T02:08:45.090Z,24.42
2022-08-29T02:11:18.064Z,24.39
2022-08-29T02:13:53.508Z,24.30
2022-08-29T02:16:24.091Z,24.25
2022-08-29T02:18:56.366Z,24.18
2022-08-29T02:21:30.407Z,24.15
2022-08-29T02:24:23.873Z,24.12
2022-08-29T02:26:58.535Z,23.98
2022-08-29T02:29:37.703Z,23.88
2022-08-29T02:32:14.564Z,23.82
2022-08-29T02:34:47.652Z,23.80
2022-08-29T02:37:20.886Z,23.76
2022-08-29T02:39:53.791Z,23.73
2022-08-29T02:42:26.132Z,23.68
2022-08-29T02:44:58.317Z,23.63
2022-08-29T02:47:30.495Z,23.64
2022-08-29T02:50:02.684Z,23.64
2022-08-29T02:52:37.285Z,23.66
2022-08-29T02:55:12.663Z,23.67
2022-08-29T02:57:45.461Z,23.67
2022-08-29T03:00:21.584Z,23.65
2022-08-29T03:02:55.368Z,23.65
2022-08-29T03:05:30.088Z,23.66
2022-08-29T03:08:03.251Z,23.65
2022-08-29T03:10:36.648Z,23.64
2022-08-29T03:13:08.922Z,23.64
2022-08-29T03:15:41.861Z,23.65
2022-08-29T03:18:14.902Z,23.64
2022-08-29T03:20:48.334Z,23.65
2022-08-29T03:23:21.914Z,23.65
2022-08-29T03:25:54.132Z,23.65
2022-08-29T03:28:26.458Z,23.62
2022-08-29T03:30:58.651Z,23.64
2022-08-29T03:33:31.135Z,23.62
2022-08-29T03:36:03.567Z,23.61
2022-08-29T03:38:40.022Z,23.59
2022-08-29T03:41:13.573Z,23.58
2022-08-29T03:43:45.774Z,23.57
2022-08-29T03:46:18.042Z,23.57
2022-08-29T03:48:50.343Z,23.55
2022-08-29T03:51:25.063Z,23.54
2022-08-29T03:54:02.227Z,23.53
2022-08-29T03:56:34.432Z,23.53
2022-08-29T03:59:06.794Z,23.53
2022-08-29T04:01:39.125Z,23.53
2022-08-29T04:04:31.639Z,23.52
2022-08-29T04:07:05.008Z,23.52
2022-08-29T04:09:37.587Z,23.52
2022-08-29T04:12:11.532Z,23.53
2022-08-29T04:14:44.313Z,23.51
2022-08-29T04:17:16.488Z,23.51
2022-08-29T04:19:49.340Z,23.51
2022-08-29T04:22:21.627Z,23.51
2022-08-29T04:24:53.881Z,23.52
2022-08-29T04:27:26.072Z,23.54
2022-08-29T04:29:58.242Z,23.55
2022-08-29T04:32:30.470Z,23.59
2022-08-29T04:35:02.703Z,23.62
2022-08-29T04:37:35.207Z,23.66
2022-08-29T04:40:09.172Z,23.70
2022-08-29T04:42:41.583Z,23.75
2022-08-29T04:45:18.009Z,23.80
2022-08-29T04:47:50.195Z,23.86
2022-08-29T04:50:24.939Z,23.90
2022-08-29T04:52:58.015Z,23.95
2022-08-29T04:55:31.394Z,24.01
2022-08-29T04:58:04.081Z,24.08
2022-08-29T05:00:36.476Z,24.13
2022-08-29T05:03:08.717Z,24.18
2022-08-29T05:05:41.190Z,24.27
2022-08-29T05:08:13.533Z,24.34
2022-08-29T05:10:49.159Z,24.42
2022-08-29T05:13:22.297Z,24.51
2022-08-29T05:15:54.618Z,24.60
2022-08-29T05:18:26.863Z,24.70
2022-08-29T05:20:59.117Z,24.76
2022-08-29T05:23:31.701Z,24.88
2022-08-29T05:26:05.548Z,24.97
2022-08-29T05:28:38.732Z,25.06
2022-08-29T05:31:13.815Z,25.17
2022-08-29T05:33:46.221Z,25.27
2022-08-29T05:36:18.957Z,25.38
2022-08-29T05:38:51.388Z,25.48
2022-08-29T05:41:23.572Z,25.58
2022-08-29T05:43:55.925Z,25.67
2022-08-29T05:46:28.166Z,25.75
2022-08-29T05:49:00.375Z,25.86
2022-08-29T05:51:37.433Z,25.97
2022-08-29T05:54:11.742Z,26.10
2022-08-29T05:56:44.273Z,26.22
2022-08-29T05:59:17.151Z,26.34
2022-08-29T06:01:49.382Z,26.48
2022-08-29T06:04:21.640Z,26.61
2022-08-29T06:06:53.802Z,26.72
2022-08-29T06:09:25.961Z,26.86
2022-08-29T06:11:58.929Z,27.00
2022-08-29T06:14:31.710Z,27.15
2022-08-29T06:17:04.858Z,27.30
2022-08-29T06:19:37.540Z,27.46
2022-08-29T06:22:11.510Z,27.67
2022-08-29T06:24:45.400Z,27.88
2022-08-29T06:27:19.436Z,28.08
2022-08-29T06:29:51.559Z,28.29
2022-08-29T06:32:23.740Z,28.50
2022-08-29T06:34:55.943Z,28.74
2022-08-29T06:37:28.152Z,28.99
2022-08-29T06:40:00.446Z,29.24
2022-08-29T06:42:32.670Z,29.48
2022-08-29T06:45:05.084Z,29.70
2022-08-29T06:47:37.235Z,29.92
2022-08-29T06:50:10.897Z,30.03
2022-08-29T06:52:43.097Z,30.08
2022-08-29T06:55:24.133Z,30.22
2022-08-29T06:57:56.942Z,30.40
2022-08-29T07:00:29.116Z,30.56
2022-08-29T07:03:01.728Z,30.76
2022-08-29T07:05:34.316Z,30.99
2022-08-29T07:08:06.927Z,31.18
2022-08-29T07:10:39.057Z,31.43
2022-08-29T07:13:11.286Z,31.60
2022-08-29T07:15:43.720Z,31.74
2022-08-29T07:18:16.070Z,31.89
2022-08-29T07:20:49.013Z,31.99
2022-08-29T07:23:21.300Z,32.18
2022-08-29T07:25:53.789Z,32.47
2022-08-29T07:28:25.919Z,32.73
2022-08-29T07:30:58.327Z,32.97
2022-08-29T07:33:31.444Z,33.25
2022-08-29T07:36:05.513Z,33.48
2022-08-29T07:38:38.497Z,33.64
2022-08-29T07:41:14.413Z,33.95
2022-08-29T07:43:46.803Z,34.30
2022-08-29T07:46:21.114Z,34.68
2022-08-29T07:48:53.875Z,35.00
2022-08-29T07:51:26.936Z,35.31
2022-08-29T07:53:59.875Z,35.60
2022-08-29T07:56:39.399Z,35.72
2022-08-29T07:59:11.619Z,35.77
2022-08-29T08:01:43.797Z,35.80
2022-08-29T08:04:16.324Z,35.81
2022-08-29T08:06:51.376Z,35.97
2022-08-29T08:09:23.586Z,36.15
2022-08-29T08:11:55.812Z,36.24
2022-08-29T08:14:35.180Z,36.44
2022-08-29T08:17:07.742Z,36.77
2022-08-29T08:19:40.208Z,37.11
2022-08-29T08:22:12.395Z,37.43
2022-08-29T08:24:45.080Z,37.72
2022-08-29T08:27:17.505Z,37.97
2022-08-29T08:29:49.663Z,38.17
2022-08-29T08:32:22.208Z,38.31
2022-08-29T08:34:54.433Z,38.46
2022-08-29T08:37:28.022Z,38.66
2022-08-29T08:40:01.289Z,38.91
2022-08-29T08:42:42.716Z,39.12
2022-08-29T08:45:16.662Z,39.27
2022-08-29T08:47:54.623Z,39.39
2022-08-29T08:50:36.020Z,39.57
2022-08-29T08:53:14.416Z,39.82
2022-08-29T08:55:50.016Z,40.02
2022-08-29T08:58:37.037Z,39.96
2022-08-29T09:01:26.712Z,39.69
2022-08-29T09:04:17.774Z,39.24
2022-08-29T09:07:16.506Z,38.75
2022-08-29T09:10:01.383Z,38.44
2022-08-29T09:12:46.232Z,38.27
2022-08-29T09:15:25.861Z,38.20
2022-08-29T09:18:02.458Z,38.20
2022-08-29T09:20:37.195Z,38.21
2022-08-29T09:23:19.981Z,38.26
2022-08-29T09:25:53.635Z,38.30
2022-08-29T09:28:26.324Z,38.26
2022-08-29T09:31:23.730Z,38.11
2022-08-29T09:33:58.487Z,37.95
2022-08-29T09:36:43.485Z,37.85
2022-08-29T09:39:23.711Z,37.69
2022-08-29T09:41:59.160Z,37.57
2022-08-29T09:44:35.361Z,37.50
2022-08-29T09:47:13.156Z,37.49
2022-08-29T09:50:05.930Z,37.49
2022-08-29T09:52:39.655Z,37.55
2022-08-29T09:55:33.548Z,37.78
2022-08-29T09:58:10.288Z,38.10
2022-08-29T10:00:46.031Z,38.38
2022-08-29T10:03:25.490Z,38.65
2022-08-29T10:06:10.979Z,38.92
2022-08-29T10:08:42.517Z,39.02
2022-08-29T10:11:26.548Z,39.18
2022-08-29T10:14:02.058Z,39.23
2022-08-29T10:16:44.783Z,39.21
2022-08-29T10:19:20.452Z,38.94
2022-08-29T10:22:03.943Z,38.61
2022-08-29T10:24:55.233Z,38.38
2022-08-29T10:27:36.122Z,38.32
2022-08-29T10:30:13.823Z,38.35
2022-08-29T10:33:12.471Z,38.35
2022-08-29T10:35:54.708Z,38.22
2022-08-29T10:38:41.096Z,38.03
2022-08-29T10:41:26.321Z,37.92
2022-08-29T10:44:06.128Z,37.88
2022-08-29T10:46:53.145Z,37.73
2022-08-29T10:49:36.971Z,37.49
2022-08-29T10:52:17.630Z,37.38
2022-08-29T10:55:09.281Z,37.32
2022-08-29T10:57:48.302Z,37.21
2022-08-29T11:00:24.574Z,37.12
2022-08-29T11:03:07.495Z,36.99
2022-08-29T11:05:46.107Z,36.81
2022-08-29T11:08:24.609Z,36.69
2022-08-29T11:10:57.159Z,36.60
2022-08-29T11:13:33.340Z,36.53
2022-08-29T11:16:13.209Z,36.44
2022-08-29T11:18:50.180Z,36.36
2022-08-29T11:21:34.811Z,36.35
2022-08-29T11:24:10.866Z,36.28
2022-08-29T11:26:55.179Z,36.08
2022-08-29T11:29:36.217Z,35.83
2022-08-29T11:32:18.445Z,35.66
2022-08-29T11:35:05.772Z,35.42
2022-08-29T11:38:18.292Z,35.28
2022-08-29T11:43:59.976Z,35.12
2022-08-29T11:46:41.004Z,35.11
2022-08-29T11:49:45.724Z,35.00
2022-08-29T11:52:26.437Z,34.92
2022-08-29T11:55:26.066Z,34.88
2022-08-29T11:58:11.023Z,34.94
2022-08-29T12:00:55.163Z,35.00
2022-08-29T12:03:57.333Z,35.06
2022-08-29T12:06:40.575Z,35.12
2022-08-29T12:09:26.738Z,35.11
2022-08-29T12:12:44.001Z,35.10
2022-08-29T12:15:53.381Z,35.02
2022-08-29T12:18:46.796Z,34.90
2022-08-29T12:21:48.811Z,34.84
2022-08-29T12:24:41.078Z,34.84
2022-08-29T12:27:40.594Z,34.75
2022-08-29T12:30:16.630Z,34.65
2022-08-29T12:33:02.547Z,34.59
2022-08-29T12:36:03.592Z,34.60
2022-08-29T12:39:07.891Z,34.55
2022-08-29T12:42:00.124Z,34.52
2022-08-29T12:44:38.779Z,34.48
2022-08-29T12:47:15.680Z,34.45
2022-08-29T12:49:51.843Z,34.44
2022-08-29T12:52:28.204Z,34.48
2022-08-29T12:55:17.963Z,34.50
2022-08-29T12:57:50.935Z,34.55
2022-08-29T13:00:25.812Z,34.57
2022-08-29T13:03:05.019Z,34.57
2022-08-29T13:05:43.775Z,34.57
2022-08-29T13:08:27.152Z,34.59
2022-08-29T13:11:01.045Z,34.60
2022-08-29T13:13:33.496Z,34.61
2022-08-29T13:16:09.887Z,34.61
2022-08-29T13:19:00.113Z,34.58
2022-08-29T13:21:36.828Z,34.58
2022-08-29T13:24:17.290Z,34.61
2022-08-29T13:27:04.783Z,34.65
2022-08-29T13:29:42.105Z,34.73
2022-08-29T13:32:23.994Z,34.78
2022-08-29T13:35:18.181Z,34.76
2022-08-29T13:38:20.047Z,34.69
2022-08-29T13:40:54.239Z,34.64
2022-08-29T13:43:40.747Z,34.64
2022-08-29T13:46:21.831Z,34.68
2022-08-29T13:49:01.639Z,34.74
2022-08-29T13:51:34.016Z,34.79
2022-08-29T13:54:06.247Z,34.81
2022-08-29T13:56:38.811Z,34.80
2022-08-29T13:59:11.793Z,34.77
2022-08-29T14:04:39.369Z,34.70
2022-08-29T14:07:17.396Z,34.72
2022-08-29T14:09:50.700Z,34.75
2022-08-29T14:12:33.062Z,34.78
2022-08-29T14:15:10.330Z,34.79
2022-08-29T14:17:44.318Z,34.80
2022-08-29T14:20:17.739Z,34.79
2022-08-29T14:22:50.487Z,34.77
2022-08-29T14:25:23.477Z,34.74
2022-08-29T14:27:55.642Z,34.71
2022-08-29T14:30:28.414Z,34.70
2022-08-29T14:33:01.777Z,34.69
2022-08-29T14:35:35.022Z,34.67
2022-08-29T14:38:11.193Z,34.65
2022-08-29T14:40:44.178Z,34.61
2022-08-29T14:43:16.781Z,34.54
2022-08-29T14:45:49.027Z,34.49
2022-08-29T14:48:21.539Z,34.48
2022-08-29T14:50:53.808Z,34.44
2022-08-29T14:53:26.268Z,34.42
2022-08-29T14:55:59.041Z,34.42
2022-08-29T14:58:31.325Z,34.41
2022-08-29T15:01:04.495Z,34.40
2022-08-29T15:03:36.680Z,34.40
2022-08-29T15:06:10.564Z,34.37
2022-08-29T15:08:43.792Z,34.34
2022-08-29T15:11:15.999Z,34.31
2022-08-29T15:13:48.159Z,34.26
2022-08-29T15:16:20.409Z,34.22
2022-08-29T15:19:31.596Z,34.20
2022-08-29T15:21:44.835Z,34.16
2022-08-29T15:24:17.027Z,34.13
2022-08-29T15:26:49.208Z,34.12
2022-08-29T15:29:21.423Z,34.11
2022-08-29T15:31:55.488Z,34.12
2022-08-29T15:34:29.284Z,34.10
2022-08-29T15:37:01.939Z,34.07
2022-08-29T15:39:34.539Z,34.05
2022-08-29T15:42:11.186Z,34.04
2022-08-29T15:44:43.472Z,34.02
2022-08-29T15:47:16.168Z,34.01
2022-08-29T15:49:49.377Z,33.98
2022-08-29T15:52:21.658Z,33.96
2022-08-29T15:54:53.908Z,33.93
2022-08-29T15:57:26.708Z,33.90
2022-08-29T15:59:59.206Z,33.87
2022-08-29T16:02:31.559Z,33.84
2022-08-29T16:05:03.875Z,33.80
2022-08-29T16:07:36.056Z,33.74
2022-08-29T16:10:10.361Z,33.67
2022-08-29T16:12:43.326Z,33.60
2022-08-29T16:15:15.644Z,33.51
2022-08-29T16:17:47.824Z,33.44
2022-08-29T16:20:19.979Z,33.34
2022-08-29T16:22:52.581Z,33.25
2022-08-29T16:25:26.407Z,33.17
2022-08-29T16:27:59.191Z,33.08
2022-08-29T16:30:31.509Z,32.99
2022-08-29T16:33:03.826Z,32.90
2022-08-29T16:35:36.176Z,32.80
2022-08-29T16:38:08.416Z,32.69
2022-08-29T16:40:40.781Z,32.59
2022-08-29T16:43:13.345Z,32.50
2022-08-29T16:45:45.734Z,32.40
2022-08-29T16:48:18.197Z,32.30
2022-08-29T16:50:50.784Z,32.21
2022-08-29T16:53:22.973Z,32.10
2022-08-29T16:55:56.130Z,32.00
2022-08-29T16:58:45.827Z,31.90
2022-08-29T17:01:18.153Z,31.81
2022-08-29T17:03:50.383Z,31.72
2022-08-29T17:06:22.656Z,31.63
2022-08-29T17:08:53.590Z,31.55
2022-08-29T17:11:25.039Z,31.47
2022-08-29T17:13:56.780Z,31.39
2022-08-29T17:16:29.114Z,31.31
2022-08-29T17:19:01.772Z,31.20
2022-08-29T17:21:34.680Z,31.11
2022-08-29T17:24:08.132Z,31.01
2022-08-29T17:26:42.671Z,30.96
2022-08-29T17:29:15.476Z,30.90
2022-08-29T17:31:48.065Z,30.83
2022-08-29T17:34:20.504Z,30.74
2022-08-29T17:36:52.703Z,30.67
2022-08-29T17:39:25.066Z,30.58
2022-08-29T17:41:59.427Z,30.51
2022-08-29T17:44:32.031Z,30.43
2022-08-29T17:47:04.249Z,30.37
2022-08-29T17:49:36.603Z,30.29
2022-08-29T17:52:08.836Z,30.20
2022-08-29T17:54:41.031Z,30.16
2022-08-29T17:57:13.285Z,30.11
2022-08-29T17:59:45.626Z,30.05
2022-08-29T18:02:17.835Z,30.00
2022-08-29T18:04:50.091Z,29.95
2022-08-29T18:07:22.443Z,29.91
2022-08-29T18:09:54.720Z,29.87
2022-08-29T18:12:27.200Z,29.83
2022-08-29T18:14:59.397Z,29.80
2022-08-29T18:17:32.306Z,29.78
2022-08-29T18:20:05.047Z,29.74
2022-08-29T18:22:37.742Z,29.71
2022-08-29T18:25:11.723Z,29.66
2022-08-29T18:27:44.056Z,29.63
2022-08-29T18:30:16.804Z,29.61
2022-08-29T18:32:49.174Z,29.59
2022-08-29T18:35:21.736Z,29.55
2022-08-29T18:37:53.995Z,29.50
2022-08-29T18:40:26.672Z,29.49
2022-08-29T18:43:01.227Z,29.46
2022-08-29T18:45:33.666Z,29.41
2022-08-29T18:48:07.349Z,29.38
2022-08-29T18:50:39.663Z,29.35
2022-08-29T18:53:14.267Z,29.31
2022-08-29T18:55:50.367Z,29.28
2022-08-29T18:58:25.122Z,29.23
2022-08-29T19:01:00.385Z,29.13
2022-08-29T19:03:32.706Z,29.03
2022-08-29T19:06:05.065Z,28.98
2022-08-29T19:08:37.323Z,28.95
2022-08-29T19:11:11.451Z,28.91
2022-08-29T19:13:44.130Z,28.89
2022-08-29T19:16:16.582Z,28.88
2022-08-29T19:18:48.939Z,28.87
2022-08-29T19:21:21.113Z,28.83
2022-08-29T19:23:54.729Z,28.80
2022-08-29T19:26:29.640Z,28.78
2022-08-29T19:29:12.614Z,28.75
2022-08-29T19:31:46.417Z,28.71
2022-08-29T19:34:18.587Z,28.69
2022-08-29T19:36:50.764Z,28.66
2022-08-29T19:39:23.888Z,28.62
2022-08-29T19:41:56.074Z,28.59
2022-08-29T19:44:28.775Z,28.54
2022-08-29T19:47:00.980Z,28.51
2022-08-29T19:49:33.151Z,28.46
2022-08-29T19:52:05.693Z,28.46
2022-08-29T19:54:37.957Z,28.41
2022-08-29T19:57:10.179Z,28.38
2022-08-29T19:59:49.028Z,28.37
2022-08-29T20:02:21.326Z,28.37
2022-08-29T20:04:53.693Z,28.34
2022-08-29T20:07:26.177Z,28.37
2022-08-29T20:09:58.320Z,28.36
2022-08-29T20:12:34.335Z,28.34
2022-08-29T20:15:07.448Z,28.29
2022-08-29T20:17:40.222Z,28.22
2022-08-29T20:20:16.076Z,28.17
2022-08-29T20:22:49.388Z,28.14
2022-08-29T20:25:23.017Z,28.14
2022-08-29T20:27:55.509Z,28.13
2022-08-29T20:30:31.394Z,28.12
2022-08-29T20:33:04.745Z,28.12
2022-08-29T20:35:55.338Z,28.09
2022-08-29T20:38:27.824Z,28.10
2022-08-29T20:41:00.704Z,28.06
2022-08-29T20:43:32.953Z,27.99
2022-08-29T20:46:09.201Z,27.91
2022-08-29T20:48:41.445Z,27.85
2022-08-29T20:51:14.543Z,27.84
2022-08-29T20:53:46.782Z,27.85
2022-08-29T20:56:19.035Z,27.83
2022-08-29T20:58:51.235Z,27.72
2022-08-29T21:01:23.526Z,27.58
2022-08-29T21:04:13.397Z,27.55
2022-08-29T21:06:46.335Z,27.54
2022-08-29T21:09:18.930Z,27.53
2022-08-29T21:11:51.103Z,27.51
2022-08-29T21:14:24.276Z,27.49
2022-08-29T21:16:58.046Z,27.46
2022-08-29T21:19:31.108Z,27.42
2022-08-29T21:22:05.118Z,27.39
2022-08-29T21:24:37.720Z,27.38
2022-08-29T21:27:10.666Z,27.36
2022-08-29T21:29:43.741Z,27.34
2022-08-29T21:32:15.914Z,27.31
2022-08-29T21:34:48.083Z,27.27
2022-08-29T21:37:20.284Z,27.23
2022-08-29T21:39:52.788Z,27.26
2022-08-29T21:42:25.474Z,27.26
2022-08-29T21:44:59.079Z,27.24
2022-08-29T21:47:32.059Z,27.21
2022-08-29T21:50:05.184Z,27.17
2022-08-29T21:52:38.220Z,27.16
2022-08-29T21:55:12.108Z,27.15
2022-08-29T21:57:51.851Z,27.13
2022-08-29T22:00:26.188Z,27.11
2022-08-29T22:02:58.703Z,27.09
2022-08-29T22:05:31.768Z,27.08
2022-08-29T22:08:04.541Z,27.05
2022-08-29T22:10:38.887Z,27.06
2022-08-29T22:13:11.223Z,27.05
2022-08-29T22:16:00.878Z,27.05
2022-08-29T22:18:33.112Z,27.04
2022-08-29T22:21:05.979Z,27.03
2022-08-29T22:23:38.157Z,26.99
2022-08-29T22:26:10.471Z,26.99
2022-08-29T22:28:45.268Z,27.00
2022-08-29T22:31:17.971Z,26.98
2022-08-29T22:33:50.381Z,26.94
2022-08-29T22:36:23.325Z,26.91
2022-08-29T22:38:57.777Z,26.83
2022-08-29T22:41:30.049Z,26.78
2022-08-29T22:44:42.346Z,26.77
2022-08-29T22:46:55.949Z,26.74
2022-08-29T22:49:33.078Z,26.72
2022-08-29T22:52:06.367Z,26.70
2022-08-29T22:54:44.076Z,26.67
2022-08-29T22:57:18.304Z,26.65
2022-08-29T22:59:51.535Z,26.61
2022-08-29T23:02:24.434Z,26.59
2022-08-29T23:04:56.673Z,26.59
2022-08-29T23:07:29.232Z,26.57
2022-08-29T23:10:01.846Z,26.56
2022-08-29T23:12:36.254Z,26.55
2022-08-29T23:15:11.800Z,26.53
2022-08-29T23:17:44.943Z,26.50
2022-08-29T23:20:19.094Z,26.49
2022-08-29T23:22:51.645Z,26.46
2022-08-29T23:25:24.081Z,26.41
2022-08-29T23:27:56.263Z,26.36
2022-08-29T23:30:28.874Z,26.33
2022-08-29T23:33:01.647Z,26.30
2022-08-29T23:35:33.845Z,26.29
2022-08-29T23:38:07.643Z,26.27
2022-08-29T23:40:40.339Z,26.26
2022-08-29T23:43:13.075Z,26.24
2022-08-29T23:45:45.754Z,26.24
2022-08-29T23:48:17.924Z,26.23
2022-08-29T23:50:55.190Z,26.23
2022-08-29T23:53:28.195Z,26.22
2022-08-29T23:56:00.513Z,26.21
2022-08-29T23:58:32.703Z,26.20
